Valentine, Arizona
Current Conditions -  °F | °C
As of 2:51 AM on Sunday 25 Jan 2015 (Local Time) from KIGM Reporting Station
Clear Clear  
Wind Chill: 36°   Ceiling: Unl
Heat Index: 41°   Visibility: NA
Dew Point: 20°   Wind: 8mph
Humidity: 43%   Direction: 100°E
Pressure: 30.24"   Gusts: NA
Location:  35.39°N, 113.66°W
Report Text: KIGM 250951Z AUTO 10007KT CLR 05/M07 A3024 RMK AO2 SLP203 T00501067 $
Loading
Personal Weather Stations






























Interactive Weather Map New forecast layout! Learn more

10-Day Weather Forecast

Advertisements
Track Severe Weather on mobile